Latest Coastal Weather Observations for Wyndham Airport

IDW60701

Issued at 10:22 am WST Monday 8 February 2016 (issued every 10 minutes, with the page automatically refreshed every 10 minutes)

About coastal observations | Map of coastal stations | Coastal observations for WA | Marine services | Other Formats
Station Details ID: 001006 Name: WYNDHAM AERO Lat: -15.51 Lon: 128.15 Height: 3.8 m
Data from the previous 72 hours. | See also: Recent months at Wyndham Airport
Date/Time
WST
Temp

°C
Wind Pressure Rain
since 9am
mm
Weather Cloud Vis
km
Sea
Height
m
Swell
Dir
 
Speed
knots
Gust
knots
hPa Trend Height
m
Period
s
Dir
08/10:00am 36.1 SSE 5 8 1008.5 - 0.0 - - - - - - -
08/09:30am 35.7 S 6 8 1008.6 - 0.0 - - - - - - -
08/09:00am 34.8 SW 7 11 1008.7 - 0.0 - - - - - - -
08/08:30am 33.4 WSW 4 8 1008.9 - 0.0 - - - - - - -
08/08:00am 33.0 W 4 8 1008.9 - 0.0 - - - - - - -
08/07:30am 32.2 W 4 6 1008.8 - 0.0 - - - - - - -
08/07:00am 31.3 SSW 4 6 1008.6 - 0.0 - - - - - - -
08/06:30am 30.2 WNW 4 5 1008.4 - 0.0 - - - - - - -
08/06:00am 29.1 NW 4 5 1008.4 - 0.0 - - - - - - -
08/05:30am 28.2 NW 4 4 1008.2 - 0.0 - - - - - - -
08/05:00am 28.2 NNW 5 6 1008.1 - 0.0 - - - - - - -
08/04:30am 28.3 NW 5 6 1007.6 - 0.0 - - - - - - -
08/04:00am 29.2 WNW 7 7 1007.4 - 0.0 - - - - - - -
08/03:30am 29.4 WNW 7 8 1007.2 - 0.0 - - - - - - -
08/03:00am 28.8 NW 5 6 1007.3 - 0.0 - - - - - - -
08/02:30am 29.7 W 5 7 1007.4 - 0.0 - - - - - - -
08/02:00am 29.9 W 6 7 1007.5 - 0.0 - - - - - - -
08/01:30am 28.9 CALM 0 0 1007.5 - 0.0 - - - - - - -
08/01:00am 29.0 CALM 0 0 1007.7 - 0.0 - - - - - - -
08/12:30am 29.4 CALM 0 0 1008.0 - 0.0 - - - - - - -
08/12:00am 29.2 CALM 0 0 1008.4 - 0.0 - - - - - - -
 
Date/Time
WST
Temp

°C
Wind Pressure Rain
since 9am
mm
Weather Cloud Vis
km
Sea
Height
m
Swell
Dir
 
Speed
knots
Gust
knots
hPa Trend Height
m
Period
s
Dir
07/11:30pm 29.9 CALM 0 0 1008.7 - 0.0 - - - - - - -
07/11:00pm 30.0 CALM 0 0 1009.0 - 0.0 - - - - - - -
07/10:30pm 30.2 CALM 0 0 1008.9 - 0.0 - - - - - - -
07/10:00pm 30.6 ENE 1 4 1008.8 - 0.0 - - - - - - -
07/09:30pm 31.6 NNW 4 5 1008.6 - 0.0 - - - - - - -
07/09:00pm 31.8 NW 5 7 1008.5 - 0.0 - - - - - - -
07/08:30pm 31.8 WSW 5 7 1008.2 - 0.0 - - - - - - -
07/08:00pm 31.8 NNE 7 11 1007.8 - 0.0 - - - - - - -
07/07:30pm 32.8 CALM 0 0 1007.4 - 0.0 - - - - - - -
07/07:00pm 32.9 NE 2 6 1006.9 - 0.0 - - - - - - -
07/06:30pm 33.3 NNW 3 4 1006.6 - 0.0 - - - - - - -
07/06:00pm 33.7 NNE 8 11 1006.2 - 0.0 - - - - - - -
07/05:30pm 34.5 N 9 13 1005.7 - 0.0 - - - - - - -
07/05:00pm 34.8 N 11 14 1005.2 - 0.0 - - - - - - -
07/04:30pm 35.5 N 13 17 1004.8 - 0.0 - - - - - - -
07/04:00pm 35.0 N 14 19 1004.6 - 0.0 - - - - - - -
07/03:30pm 37.3 ESE 11 13 1004.1 - 0.0 - - - - - - -
07/03:00pm 38.6 ENE 8 13 1004.1 - 0.0 - - - - - - -
07/02:30pm 39.2 ESE 7 12 1004.4 - 0.0 - - - - - - -
07/02:00pm 37.9 E 8 13 1004.6 - 0.0 - - - - - - -
07/01:30pm 38.9 ENE 10 15 1004.9 - 0.0 - - - - - - -
07/01:00pm 38.3 ENE 7 11 1005.2 - 0.0 - - - - - - -
07/12:30pm 38.5 ENE 9 13 1005.6 - 0.0 - - - - - - -
07/12:00pm 39.0 E 7 14 1006.1 - 0.0 - - - - - - -
07/11:30am 36.7 ESE 6 10 1006.3 - 0.0 - - - - - - -
07/11:00am 37.1 E 5 14 1006.7 - 0.0 - - - - - - -
07/10:30am 35.9 SE 5 12 1007.1 - 0.0 - - - - - - -
07/10:00am 35.6 SE 6 9 1007.5 - 0.0 - - - - - - -
07/09:30am 34.5 SW 3 7 1007.8 - 0.0 - - - - - - -
07/09:00am 33.6 WSW 3 6 1008.1 - 0.0 - - - - - - -
07/08:30am 32.7 SW 3 7 1008.1 - 0.0 - - - - - - -
07/08:00am 32.2 S 3 6 1008.1 - 0.0 - - - - - - -
07/07:30am 30.9 ESE 4 6 1008.1 - 0.0 - - - - - - -
07/07:00am 30.5 ESE 5 6 1007.9 - 0.0 - - - - - - -
07/06:30am 29.1 E 6 7 1007.7 - 0.0 - - - - - - -
07/06:00am 28.3 ESE 8 9 1007.4 - 0.0 - - - - - - -
07/05:30am 27.7 ESE 8 8 1007.2 - 0.0 - - - - - - -
07/05:00am 27.7 ESE 7 8 1006.9 - 0.0 - - - - - - -
07/04:30am 27.5 SE 5 6 1006.4 - 0.0 - - - - - - -
07/04:00am 27.6 ENE 4 4 1006.1 - 0.0 - - - - - - -
07/03:30am 27.7 E 5 5 1006.1 - 0.0 - - - - - - -
07/03:00am 27.8 ENE 4 5 1006.1 - 0.0 - - - - - - -
07/02:30am 27.9 ENE 4 5 1006.1 - 0.0 - - - - - - -
07/02:00am 28.1 E 4 5 1006.1 - 0.0 - - - - - - -
07/01:30am 28.1 E 5 6 1006.1 - 0.0 - - - - - - -
07/01:00am 28.7 E 6 7 1006.2 - 0.0 - - - - - - -
07/12:30am 29.0 SE 6 8 1006.2 - 0.0 - - - - - - -
07/12:00am 29.1 CALM 0 0 1006.3 - 0.0 - - - - - - -
 
Date/Time
WST
Temp

°C
Wind Pressure Rain
since 9am
mm
Weather Cloud Vis
km
Sea
Height
m
Swell
Dir
 
Speed
knots
Gust
knots
hPa Trend Height
m
Period
s
Dir
06/11:30pm 29.6 CALM 0 0 1006.5 - 0.0 - - - - - - -
06/11:00pm 30.4 CALM 0 0 1006.8 - 0.0 - - - - - - -
06/10:30pm 30.7 CALM 0 0 1007.1 - 0.0 - - - - - - -
06/10:00pm 30.9 N 6 7 1007.3 - 0.0 - - - - - - -
06/09:30pm 31.2 NNW 6 9 1007.0 - 0.0 - - - - - - -
06/09:00pm 31.4 NNW 5 8 1006.8 - 0.0 - - - - - - -
06/08:30pm 31.5 W 3 6 1006.5 - 0.0 - - - - - - -
06/08:00pm 31.2 N 8 11 1006.2 - 0.0 - - - - - - -
06/07:30pm 31.5 N 11 15 1005.9 - 0.0 - - - - - - -
06/07:00pm 31.6 N 14 19 1005.6 - 0.0 - - - - - - -
06/06:30pm 33.2 NNE 10 14 1005.1 - 0.0 - - - - - - -
06/06:00pm 34.2 NE 10 12 1004.5 - 0.0 - - - - - - -
06/05:30pm 35.0 ENE 11 15 1003.9 - 0.0 - - - - - - -
06/05:00pm 36.8 E 9 15 1003.3 - 0.0 - - - - - - -
06/04:30pm 37.1 ESE 9 13 1003.1 - 0.0 - - - - - - -
06/04:00pm 37.3 E 9 14 1002.9 - 0.0 - - - - - - -
06/03:30pm 37.3 E 8 11 1003.0 - 0.0 - - - - - - -
06/03:00pm 35.8 ENE 7 11 1003.2 - 0.0 - - - - - - -
06/02:30pm 36.8 E 8 13 1003.7 - 0.0 - - - - - - -
06/02:00pm 37.6 ENE 7 12 1004.0 - 0.0 - - - - - - -
06/01:30pm 37.4 ESE 8 11 1004.4 - 0.0 - - - - - - -
06/01:00pm 36.7 ENE 8 13 1004.6 - 0.0 - - - - - - -
06/12:30pm 36.1 SE 4 9 1005.0 - 0.0 - - - - - - -
06/12:00pm 35.3 ESE 7 10 1005.4 - 0.0 - - - - - - -
06/11:30am 35.0 ESE 7 11 1005.9 - 0.0 - - - - - - -
06/11:00am 34.4 SE 6 13 1006.3 - 0.0 - - - - - - -
06/10:30am 34.1 SSE 5 9 1006.7 - 0.0 - - - - - - -
06/10:00am 32.7 WNW 4 8 1007.1 - 0.0 - - - - - - -
06/09:30am 31.9 WNW 5 9 1007.4 - 0.0 - - - - - - -
06/09:00am 31.4 W 7 11 1007.6 - 0.4 - - - - - - -
06/08:30am 30.3 W 7 9 1007.8 - 0.4 - - - - - - -
06/08:00am 29.0 NW 5 7 1007.8 - 0.4 - - - - - - -
06/07:30am 27.8 W 7 8 1007.7 - 0.4 - - - - - - -
06/07:00am 27.2 SW 7 9 1007.8 - 0.4 - - - - - - -
06/06:30am 27.3 WNW 6 8 1007.4 - 0.4 - - - - - - -
06/06:00am 26.3 NNW 5 6 1006.9 - 0.4 - - - - - - -
06/05:30am 26.5 SSW 4 5 1006.4 - 0.4 - - - - - - -
06/05:00am 25.9 ESE 7 9 1006.2 - 0.4 - - - - - - -
06/04:30am 26.1 ESE 9 12 1006.3 - 0.4 - - - - - - -
06/04:00am 27.3 SSE 6 8 1006.1 - 0.4 - - - - - - -
06/03:30am 27.4 SW 6 9 1006.2 - 0.4 - - - - - - -
06/03:00am 27.3 WSW 5 7 1006.3 - 0.4 - - - - - - -
06/02:30am 27.1 SW 8 10 1006.4 - 0.4 - - - - - - -
06/02:00am 26.9 WSW 7 7 1006.3 - 0.4 - - - - - - -
06/01:30am 27.0 W 7 8 1006.2 - 0.4 - - - - - - -
06/01:00am 26.9 NW 10 12 1006.3 - 0.4 - - - - - - -
06/12:30am 26.9 NW 12 15 1006.7 - 0.4 - - - - - - -
06/12:00am 27.2 NNW 11 14 1007.4 - 0.4 - - - - - - -
 
Date/Time
WST
Temp

°C
Wind Pressure Rain
since 9am
mm
Weather Cloud Vis
km
Sea
Height
m
Swell
Dir
 
Speed
knots
Gust
knots
hPa Trend Height
m
Period
s
Dir
05/11:30pm 27.8 NNW 6 8 1007.7 - 0.4 - - - - - - -
05/11:00pm 28.0 NNW 7 9 1007.8 - 0.4 - - - - - - -
05/10:30pm 28.1 NNW 8 11 1007.8 - 0.4 - - - - - - -
05/10:00pm 28.0 NNW 6 8 1008.0 - 0.4 - - - - - - -
05/09:30pm 28.4 WNW 10 12 1008.0 - 0.4 - - - - - - -
05/09:00pm 28.5 NW 8 11 1007.5 - 0.4 - - - - - - -
05/08:30pm 28.2 NW 5 7 1007.2 - 0.4 - - - - - - -
05/08:00pm 27.9 N 4 6 1006.9 - 0.4 - - - - - - -
05/07:30pm 27.6 ENE 8 10 1006.8 - 0.4 - - - - - - -
05/07:00pm 27.5 E 7 10 1006.9 - 0.2 - - - - - - -
05/06:30pm 27.8 E 13 15 1006.7 - 0.2 - - - - - - -
05/06:00pm 29.5 E 11 14 1006.0 - 0.2 - - - - - - -
05/05:30pm 30.2 NE 7 10 1005.4 - 0.2 - - - - - - -
05/05:00pm 30.4 NE 7 11 1004.8 - 0.2 - - - - - - -
05/04:30pm 30.1 NE 8 11 1004.9 - 0.2 - - - - - - -
05/04:00pm 32.2 NE 12 16 1004.4 - 0.2 - - - - - - -
05/03:30pm 33.7 ESE 14 19 1003.6 - 0.2 - - - - - - -
05/03:00pm 36.7 NNE 3 10 1003.1 - 0.2 - - - - - - -
05/02:30pm 36.6 NNW 7 13 1003.5 - 0.2 - - - - - - -
05/02:00pm 37.4 S 4 8 1003.4 - 0.2 - - - - - - -
05/01:30pm 36.6 E 4 8 1004.0 - 0.2 - - - - - - -
05/01:00pm 36.4 SSE 5 8 1004.4 - 0.2 - - - - - - -
05/12:30pm 35.7 W 4 11 1005.0 - 0.2 - - - - - - -
05/12:00pm 35.1 WSW 4 7 1005.7 - 0.2 - - - - - - -
05/11:30am 34.4 S 5 8 1006.2 - 0.2 - - - - - - -
05/11:00am 34.0 S 7 11 1006.7 - 0.2 - - - - - - -
05/10:30am 33.5 SSW 5 8 1007.2 - 0.0 - - - - - - -

Other Formats:

Comma delimited format used in spreadsheet applications
http://www.bom.gov.au/fwo/IDW60701/IDW60701.95214.axf

JavaScript Object Notation format (JSON) in row-major order
http://www.bom.gov.au/fwo/IDW60701/IDW60701.95214.json